sensor_id;sensor_type;location;lat;lon;timestamp;P1;durP1;ratioP1;P2;durP2;ratioP2
75371;SDS011;63956;52.006;5.878;2023-04-07T00:00:54;17.50;;;10.35;;
75371;SDS011;63956;52.006;5.878;2023-04-07T00:05:55;14.30;;;8.43;;
75371;SDS011;63956;52.006;5.878;2023-04-07T00:08:24;21.42;;;11.90;;
75371;SDS011;63956;52.006;5.878;2023-04-07T00:10:53;16.20;;;9.10;;
75371;SDS011;63956;52.006;5.878;2023-04-07T00:13:23;18.63;;;10.98;;
75371;SDS011;63956;52.006;5.878;2023-04-07T00:15:52;12.10;;;7.60;;
75371;SDS011;63956;52.006;5.878;2023-04-07T00:18:21;12.57;;;7.35;;
75371;SDS011;63956;52.006;5.878;2023-04-07T00:20:50;16.60;;;10.15;;
75371;SDS011;63956;52.006;5.878;2023-04-07T00:25:51;8.50;;;5.28;;
75371;SDS011;63956;52.006;5.878;2023-04-07T00:28:20;10.70;;;6.50;;
75371;SDS011;63956;52.006;5.878;2023-04-07T00:30:49;13.55;;;6.65;;
75371;SDS011;63956;52.006;5.878;2023-04-07T00:33:19;8.43;;;5.40;;
75371;SDS011;63956;52.006;5.878;2023-04-07T00:35:48;10.05;;;5.30;;
75371;SDS011;63956;52.006;5.878;2023-04-07T00:38:18;17.42;;;9.60;;
75371;SDS011;63956;52.006;5.878;2023-04-07T00:40:55;9.25;;;5.03;;
75371;SDS011;63956;52.006;5.878;2023-04-07T00:43:25;9.40;;;5.13;;
75371;SDS011;63956;52.006;5.878;2023-04-07T00:45:54;13.70;;;6.63;;
75371;SDS011;63956;52.006;5.878;2023-04-07T00:48:23;6.15;;;3.63;;
75371;SDS011;63956;52.006;5.878;2023-04-07T00:50:53;8.68;;;5.40;;
75371;SDS011;63956;52.006;5.878;2023-04-07T00:53:25;8.20;;;4.47;;
75371;SDS011;63956;52.006;5.878;2023-04-07T00:55:54;11.07;;;6.22;;
75371;SDS011;63956;52.006;5.878;2023-04-07T00:58:23;13.48;;;8.30;;
75371;SDS011;63956;52.006;5.878;2023-04-07T01:00:55;8.55;;;4.97;;
75371;SDS011;63956;52.006;5.878;2023-04-07T01:03:32;10.90;;;5.53;;
75371;SDS011;63956;52.006;5.878;2023-04-07T01:06:04;11.15;;;6.35;;
75371;SDS011;63956;52.006;5.878;2023-04-07T01:08:41;10.88;;;6.03;;
75371;SDS011;63956;52.006;5.878;2023-04-07T01:11:21;11.95;;;6.68;;
75371;SDS011;63956;52.006;5.878;2023-04-07T01:13:54;14.10;;;7.45;;
75371;SDS011;63956;52.006;5.878;2023-04-07T01:16:33;10.75;;;5.32;;
75371;SDS011;63956;52.006;5.878;2023-04-07T01:19:08;8.63;;;4.93;;
75371;SDS011;63956;52.006;5.878;2023-04-07T01:21:51;22.25;;;9.98;;
75371;SDS011;63956;52.006;5.878;2023-04-07T01:24:38;21.55;;;9.73;;
75371;SDS011;63956;52.006;5.878;2023-04-07T01:27:18;11.88;;;6.15;;
75371;SDS011;63956;52.006;5.878;2023-04-07T01:29:55;12.57;;;7.30;;
75371;SDS011;63956;52.006;5.878;2023-04-07T01:32:26;7.18;;;3.05;;
75371;SDS011;63956;52.006;5.878;2023-04-07T01:34:55;13.25;;;6.90;;
75371;SDS011;63956;52.006;5.878;2023-04-07T01:37:25;9.50;;;4.57;;
75371;SDS011;63956;52.006;5.878;2023-04-07T01:39:55;8.45;;;4.70;;
75371;SDS011;63956;52.006;5.878;2023-04-07T01:44:56;9.68;;;4.13;;
75371;SDS011;63956;52.006;5.878;2023-04-07T01:47:26;12.20;;;6.60;;
75371;SDS011;63956;52.006;5.878;2023-04-07T01:49:56;16.80;;;7.97;;
75371;SDS011;63956;52.006;5.878;2023-04-07T01:52:26;10.25;;;5.68;;
75371;SDS011;63956;52.006;5.878;2023-04-07T01:54:56;13.02;;;6.47;;
75371;SDS011;63956;52.006;5.878;2023-04-07T01:57:25;16.75;;;8.13;;
75371;SDS011;63956;52.006;5.878;2023-04-07T02:00:03;7.20;;;2.60;;
75371;SDS011;63956;52.006;5.878;2023-04-07T02:02:42;9.70;;;4.40;;
75371;SDS011;63956;52.006;5.878;2023-04-07T02:05:14;9.73;;;5.95;;
75371;SDS011;63956;52.006;5.878;2023-04-07T02:07:48;7.40;;;5.70;;
75371;SDS011;63956;52.006;5.878;2023-04-07T02:10:23;7.38;;;3.55;;
75371;SDS011;63956;52.006;5.878;2023-04-07T02:12:57;12.38;;;5.45;;
75371;SDS011;63956;52.006;5.878;2023-04-07T02:15:31;11.80;;;6.28;;
75371;SDS011;63956;52.006;5.878;2023-04-07T02:18:01;7.63;;;4.07;;
75371;SDS011;63956;52.006;5.878;2023-04-07T02:20:32;6.95;;;3.72;;
75371;SDS011;63956;52.006;5.878;2023-04-07T02:23:06;14.25;;;7.22;;
75371;SDS011;63956;52.006;5.878;2023-04-07T02:25:35;8.82;;;4.32;;
75371;SDS011;63956;52.006;5.878;2023-04-07T02:28:05;7.13;;;3.70;;
75371;SDS011;63956;52.006;5.878;2023-04-07T02:33:06;7.90;;;4.57;;
75371;SDS011;63956;52.006;5.878;2023-04-07T02:35:35;13.95;;;7.88;;
75371;SDS011;63956;52.006;5.878;2023-04-07T02:38:05;7.05;;;3.55;;
75371;SDS011;63956;52.006;5.878;2023-04-07T02:40:35;8.73;;;4.10;;
75371;SDS011;63956;52.006;5.878;2023-04-07T02:43:04;7.97;;;4.25;;
75371;SDS011;63956;52.006;5.878;2023-04-07T02:48:05;7.88;;;3.70;;
75371;SDS011;63956;52.006;5.878;2023-04-07T02:50:36;15.63;;;7.38;;
75371;SDS011;63956;52.006;5.878;2023-04-07T02:53:06;7.75;;;4.50;;
75371;SDS011;63956;52.006;5.878;2023-04-07T02:55:35;9.80;;;4.55;;
75371;SDS011;63956;52.006;5.878;2023-04-07T03:00:39;13.15;;;5.95;;
75371;SDS011;63956;52.006;5.878;2023-04-07T03:03:15;5.63;;;2.65;;
75371;SDS011;63956;52.006;5.878;2023-04-07T03:05:56;7.65;;;3.88;;
75371;SDS011;63956;52.006;5.878;2023-04-07T03:08:26;6.68;;;3.35;;
75371;SDS011;63956;52.006;5.878;2023-04-07T03:10:55;9.45;;;4.75;;
75371;SDS011;63956;52.006;5.878;2023-04-07T03:13:28;6.30;;;3.85;;
75371;SDS011;63956;52.006;5.878;2023-04-07T03:15:57;8.13;;;3.75;;
75371;SDS011;63956;52.006;5.878;2023-04-07T03:18:34;8.32;;;2.88;;
75371;SDS011;63956;52.006;5.878;2023-04-07T03:21:04;8.90;;;4.30;;
75371;SDS011;63956;52.006;5.878;2023-04-07T03:23:35;9.00;;;5.35;;
75371;SDS011;63956;52.006;5.878;2023-04-07T03:26:05;8.23;;;4.00;;
75371;SDS011;63956;52.006;5.878;2023-04-07T03:28:36;7.43;;;3.50;;
75371;SDS011;63956;52.006;5.878;2023-04-07T03:31:06;6.28;;;3.20;;
75371;SDS011;63956;52.006;5.878;2023-04-07T03:33:38;6.60;;;2.22;;
75371;SDS011;63956;52.006;5.878;2023-04-07T03:36:07;6.82;;;3.13;;
75371;SDS011;63956;52.006;5.878;2023-04-07T03:38:37;7.13;;;3.58;;
75371;SDS011;63956;52.006;5.878;2023-04-07T03:41:06;7.60;;;4.50;;
75371;SDS011;63956;52.006;5.878;2023-04-07T03:43:35;8.65;;;3.47;;
75371;SDS011;63956;52.006;5.878;2023-04-07T03:46:05;6.85;;;3.00;;
75371;SDS011;63956;52.006;5.878;2023-04-07T03:48:34;8.70;;;4.72;;
75371;SDS011;63956;52.006;5.878;2023-04-07T03:51:10;8.85;;;4.30;;
75371;SDS011;63956;52.006;5.878;2023-04-07T03:53:39;9.27;;;4.97;;
75371;SDS011;63956;52.006;5.878;2023-04-07T03:56:23;8.10;;;3.80;;
75371;SDS011;63956;52.006;5.878;2023-04-07T03:58:53;6.90;;;4.13;;
75371;SDS011;63956;52.006;5.878;2023-04-07T04:01:32;7.88;;;4.25;;
75371;SDS011;63956;52.006;5.878;2023-04-07T04:04:10;6.22;;;4.00;;
75371;SDS011;63956;52.006;5.878;2023-04-07T04:06:42;10.65;;;4.25;;
75371;SDS011;63956;52.006;5.878;2023-04-07T04:09:32;9.38;;;5.15;;
75371;SDS011;63956;52.006;5.878;2023-04-07T04:12:03;9.35;;;4.32;;
75371;SDS011;63956;52.006;5.878;2023-04-07T04:17:08;7.22;;;3.75;;
75371;SDS011;63956;52.006;5.878;2023-04-07T04:19:43;7.75;;;5.45;;
75371;SDS011;63956;52.006;5.878;2023-04-07T04:22:29;9.48;;;4.95;;
75371;SDS011;63956;52.006;5.878;2023-04-07T04:24:59;8.98;;;4.40;;
75371;SDS011;63956;52.006;5.878;2023-04-07T04:27:30;7.57;;;3.53;;
75371;SDS011;63956;52.006;5.878;2023-04-07T04:30:13;9.43;;;4.82;;
75371;SDS011;63956;52.006;5.878;2023-04-07T04:32:51;6.70;;;3.80;;
75371;SDS011;63956;52.006;5.878;2023-04-07T04:35:32;9.50;;;4.93;;
75371;SDS011;63956;52.006;5.878;2023-04-07T04:38:14;7.28;;;3.90;;
75371;SDS011;63956;52.006;5.878;2023-04-07T04:40:51;9.43;;;6.30;;
75371;SDS011;63956;52.006;5.878;2023-04-07T04:43:25;8.50;;;4.03;;
75371;SDS011;63956;52.006;5.878;2023-04-07T04:45:55;8.73;;;4.43;;
75371;SDS011;63956;52.006;5.878;2023-04-07T04:48:27;14.35;;;7.97;;
75371;SDS011;63956;52.006;5.878;2023-04-07T04:50:56;17.20;;;6.93;;
75371;SDS011;63956;52.006;5.878;2023-04-07T04:53:28;10.50;;;5.20;;
75371;SDS011;63956;52.006;5.878;2023-04-07T04:56:00;10.20;;;5.43;;
75371;SDS011;63956;52.006;5.878;2023-04-07T04:58:39;14.77;;;6.85;;
75371;SDS011;63956;52.006;5.878;2023-04-07T05:01:13;8.00;;;4.20;;
75371;SDS011;63956;52.006;5.878;2023-04-07T05:03:50;7.72;;;4.20;;
75371;SDS011;63956;52.006;5.878;2023-04-07T05:06:23;10.30;;;6.35;;
75371;SDS011;63956;52.006;5.878;2023-04-07T05:08:57;6.10;;;3.25;;
75371;SDS011;63956;52.006;5.878;2023-04-07T05:11:32;7.20;;;4.38;;
75371;SDS011;63956;52.006;5.878;2023-04-07T05:14:01;10.90;;;5.07;;
75371;SDS011;63956;52.006;5.878;2023-04-07T05:16:30;16.80;;;6.80;;
75371;SDS011;63956;52.006;5.878;2023-04-07T05:19:00;7.43;;;4.25;;
75371;SDS011;63956;52.006;5.878;2023-04-07T05:21:30;9.50;;;4.80;;
75371;SDS011;63956;52.006;5.878;2023-04-07T05:24:05;8.07;;;4.57;;
75371;SDS011;63956;52.006;5.878;2023-04-07T05:26:34;13.20;;;6.60;;
75371;SDS011;63956;52.006;5.878;2023-04-07T05:29:04;6.43;;;4.03;;
75371;SDS011;63956;52.006;5.878;2023-04-07T05:31:34;12.00;;;4.95;;
75371;SDS011;63956;52.006;5.878;2023-04-07T05:34:09;15.25;;;6.55;;
75371;SDS011;63956;52.006;5.878;2023-04-07T05:36:44;9.70;;;2.92;;
75371;SDS011;63956;52.006;5.878;2023-04-07T05:39:17;6.20;;;3.50;;
75371;SDS011;63956;52.006;5.878;2023-04-07T05:41:48;9.38;;;5.13;;
75371;SDS011;63956;52.006;5.878;2023-04-07T05:44:21;6.72;;;3.60;;
75371;SDS011;63956;52.006;5.878;2023-04-07T05:46:51;6.78;;;3.47;;
75371;SDS011;63956;52.006;5.878;2023-04-07T05:49:22;7.15;;;3.65;;
75371;SDS011;63956;52.006;5.878;2023-04-07T05:52:00;8.20;;;4.53;;
75371;SDS011;63956;52.006;5.878;2023-04-07T05:54:34;9.45;;;5.25;;
75371;SDS011;63956;52.006;5.878;2023-04-07T05:57:05;6.60;;;3.55;;
75371;SDS011;63956;52.006;5.878;2023-04-07T05:59:36;6.63;;;3.70;;
75371;SDS011;63956;52.006;5.878;2023-04-07T06:02:06;6.35;;;2.97;;
75371;SDS011;63956;52.006;5.878;2023-04-07T06:04:35;12.82;;;6.03;;
75371;SDS011;63956;52.006;5.878;2023-04-07T06:07:05;13.93;;;6.75;;
75371;SDS011;63956;52.006;5.878;2023-04-07T06:09:37;11.60;;;4.80;;
75371;SDS011;63956;52.006;5.878;2023-04-07T06:12:08;7.25;;;3.75;;
75371;SDS011;63956;52.006;5.878;2023-04-07T06:14:38;8.27;;;4.05;;
75371;SDS011;63956;52.006;5.878;2023-04-07T06:17:07;7.25;;;3.53;;
75371;SDS011;63956;52.006;5.878;2023-04-07T06:19:36;10.50;;;5.55;;
75371;SDS011;63956;52.006;5.878;2023-04-07T06:22:05;6.93;;;3.70;;
75371;SDS011;63956;52.006;5.878;2023-04-07T06:24:41;7.25;;;4.07;;
75371;SDS011;63956;52.006;5.878;2023-04-07T06:27:10;9.95;;;3.60;;
75371;SDS011;63956;52.006;5.878;2023-04-07T06:29:39;7.47;;;4.15;;
75371;SDS011;63956;52.006;5.878;2023-04-07T06:32:08;7.18;;;4.00;;
75371;SDS011;63956;52.006;5.878;2023-04-07T06:34:38;7.80;;;4.85;;
75371;SDS011;63956;52.006;5.878;2023-04-07T06:37:08;7.90;;;4.38;;
75371;SDS011;63956;52.006;5.878;2023-04-07T06:39:37;7.97;;;3.72;;
75371;SDS011;63956;52.006;5.878;2023-04-07T06:42:10;9.00;;;4.22;;
75371;SDS011;63956;52.006;5.878;2023-04-07T06:44:49;5.68;;;3.00;;
75371;SDS011;63956;52.006;5.878;2023-04-07T06:47:18;6.53;;;3.45;;
75371;SDS011;63956;52.006;5.878;2023-04-07T06:52:16;4.78;;;2.80;;
75371;SDS011;63956;52.006;5.878;2023-04-07T06:57:16;5.22;;;2.05;;
75371;SDS011;63956;52.006;5.878;2023-04-07T06:59:45;5.07;;;2.97;;
75371;SDS011;63956;52.006;5.878;2023-04-07T07:04:43;8.13;;;3.97;;
75371;SDS011;63956;52.006;5.878;2023-04-07T07:09:41;5.80;;;2.17;;
75371;SDS011;63956;52.006;5.878;2023-04-07T07:12:13;4.57;;;2.60;;
75371;SDS011;63956;52.006;5.878;2023-04-07T07:14:42;5.82;;;2.63;;
75371;SDS011;63956;52.006;5.878;2023-04-07T07:19:41;11.93;;;4.82;;
75371;SDS011;63956;52.006;5.878;2023-04-07T07:22:10;8.15;;;3.38;;
75371;SDS011;63956;52.006;5.878;2023-04-07T07:24:40;5.30;;;2.60;;
75371;SDS011;63956;52.006;5.878;2023-04-07T07:27:09;7.70;;;4.68;;
75371;SDS011;63956;52.006;5.878;2023-04-07T07:32:10;7.60;;;2.20;;
75371;SDS011;63956;52.006;5.878;2023-04-07T07:37:07;5.15;;;2.70;;
75371;SDS011;63956;52.006;5.878;2023-04-07T07:39:37;4.05;;;1.23;;
75371;SDS011;63956;52.006;5.878;2023-04-07T07:42:06;4.88;;;2.42;;
75371;SDS011;63956;52.006;5.878;2023-04-07T07:44:35;6.07;;;1.52;;
75371;SDS011;63956;52.006;5.878;2023-04-07T07:49:37;5.20;;;2.60;;
75371;SDS011;63956;52.006;5.878;2023-04-07T07:52:06;6.43;;;2.75;;
75371;SDS011;63956;52.006;5.878;2023-04-07T07:54:35;4.47;;;2.10;;
75371;SDS011;63956;52.006;5.878;2023-04-07T07:59:33;3.38;;;2.05;;
75371;SDS011;63956;52.006;5.878;2023-04-07T08:02:03;4.88;;;1.83;;
75371;SDS011;63956;52.006;5.878;2023-04-07T08:07:04;4.20;;;2.22;;
75371;SDS011;63956;52.006;5.878;2023-04-07T08:12:02;3.92;;;2.17;;
75371;SDS011;63956;52.006;5.878;2023-04-07T08:14:31;4.68;;;2.58;;
75371;SDS011;63956;52.006;5.878;2023-04-07T08:17:00;5.13;;;1.23;;
75371;SDS011;63956;52.006;5.878;2023-04-07T08:22:01;4.18;;;2.53;;
75371;SDS011;63956;52.006;5.878;2023-04-07T08:24:30;5.57;;;3.35;;
75371;SDS011;63956;52.006;5.878;2023-04-07T08:29:28;5.65;;;2.85;;
75371;SDS011;63956;52.006;5.878;2023-04-07T08:34:26;3.67;;;2.03;;
75371;SDS011;63956;52.006;5.878;2023-04-07T08:39:27;6.18;;;3.35;;
75371;SDS011;63956;52.006;5.878;2023-04-07T08:41:56;6.22;;;2.65;;
75371;SDS011;63956;52.006;5.878;2023-04-07T08:44:25;6.00;;;3.33;;
75371;SDS011;63956;52.006;5.878;2023-04-07T08:46:56;5.82;;;2.88;;
75371;SDS011;63956;52.006;5.878;2023-04-07T08:49:28;6.75;;;3.08;;
75371;SDS011;63956;52.006;5.878;2023-04-07T08:52:00;6.38;;;3.13;;
75371;SDS011;63956;52.006;5.878;2023-04-07T08:54:35;5.68;;;2.60;;
75371;SDS011;63956;52.006;5.878;2023-04-07T08:57:06;3.97;;;2.60;;
75371;SDS011;63956;52.006;5.878;2023-04-07T08:59:36;4.30;;;2.35;;
75371;SDS011;63956;52.006;5.878;2023-04-07T09:02:07;5.82;;;2.42;;
75371;SDS011;63956;52.006;5.878;2023-04-07T09:07:05;4.60;;;0.93;;
75371;SDS011;63956;52.006;5.878;2023-04-07T09:12:06;4.35;;;1.95;;
75371;SDS011;63956;52.006;5.878;2023-04-07T09:14:36;5.18;;;2.53;;
75371;SDS011;63956;52.006;5.878;2023-04-07T09:19:34;4.90;;;2.53;;
75371;SDS011;63956;52.006;5.878;2023-04-07T09:24:33;4.38;;;2.67;;
75371;SDS011;63956;52.006;5.878;2023-04-07T09:29:41;5.18;;;3.10;;
75371;SDS011;63956;52.006;5.878;2023-04-07T09:32:11;7.35;;;3.40;;
75371;SDS011;63956;52.006;5.878;2023-04-07T09:34:52;5.25;;;2.42;;
75371;SDS011;63956;52.006;5.878;2023-04-07T09:37:26;7.95;;;3.10;;
75371;SDS011;63956;52.006;5.878;2023-04-07T09:42:28;3.88;;;2.25;;
75371;SDS011;63956;52.006;5.878;2023-04-07T09:44:59;4.78;;;2.88;;
75371;SDS011;63956;52.006;5.878;2023-04-07T09:47:30;5.22;;;2.67;;
75371;SDS011;63956;52.006;5.878;2023-04-07T09:50:00;9.75;;;4.10;;
75371;SDS011;63956;52.006;5.878;2023-04-07T09:55:19;4.07;;;2.03;;
75371;SDS011;63956;52.006;5.878;2023-04-07T09:57:53;7.25;;;2.83;;
75371;SDS011;63956;52.006;5.878;2023-04-07T10:00:23;6.53;;;2.65;;
75371;SDS011;63956;52.006;5.878;2023-04-07T10:02:52;4.20;;;2.42;;
75371;SDS011;63956;52.006;5.878;2023-04-07T10:05:22;6.60;;;2.90;;
75371;SDS011;63956;52.006;5.878;2023-04-07T10:07:52;7.10;;;3.67;;
75371;SDS011;63956;52.006;5.878;2023-04-07T10:10:22;7.18;;;3.22;;
75371;SDS011;63956;52.006;5.878;2023-04-07T10:12:54;4.38;;;2.05;;
75371;SDS011;63956;52.006;5.878;2023-04-07T10:15:24;4.47;;;2.45;;
75371;SDS011;63956;52.006;5.878;2023-04-07T10:17:53;4.50;;;2.35;;
75371;SDS011;63956;52.006;5.878;2023-04-07T10:20:24;4.00;;;2.63;;
75371;SDS011;63956;52.006;5.878;2023-04-07T10:22:54;5.45;;;2.67;;
75371;SDS011;63956;52.006;5.878;2023-04-07T10:25:29;4.97;;;2.63;;
75371;SDS011;63956;52.006;5.878;2023-04-07T10:28:03;9.65;;;3.97;;
75371;SDS011;63956;52.006;5.878;2023-04-07T10:30:36;10.27;;;3.03;;
75371;SDS011;63956;52.006;5.878;2023-04-07T10:33:06;5.53;;;1.77;;
75371;SDS011;63956;52.006;5.878;2023-04-07T10:38:32;4.13;;;1.33;;
75371;SDS011;63956;52.006;5.878;2023-04-07T10:41:13;6.82;;;3.85;;
75371;SDS011;63956;52.006;5.878;2023-04-07T10:44:03;5.43;;;2.22;;
75371;SDS011;63956;52.006;5.878;2023-04-07T10:49:32;4.57;;;3.70;;
75371;SDS011;63956;52.006;5.878;2023-04-07T11:03:34;7.25;;;3.90;;
75371;SDS011;63956;52.006;5.878;2023-04-07T11:06:04;7.05;;;3.50;;
75371;SDS011;63956;52.006;5.878;2023-04-07T11:08:35;3.90;;;2.50;;
75371;SDS011;63956;52.006;5.878;2023-04-07T11:11:07;6.03;;;2.25;;
75371;SDS011;63956;52.006;5.878;2023-04-07T11:13:39;8.95;;;3.45;;
75371;SDS011;63956;52.006;5.878;2023-04-07T11:16:11;5.28;;;2.40;;
75371;SDS011;63956;52.006;5.878;2023-04-07T11:18:42;4.10;;;1.90;;
75371;SDS011;63956;52.006;5.878;2023-04-07T11:21:16;7.47;;;3.00;;
75371;SDS011;63956;52.006;5.878;2023-04-07T11:23:46;5.13;;;1.17;;
75371;SDS011;63956;52.006;5.878;2023-04-07T11:26:15;4.35;;;2.28;;
75371;SDS011;63956;52.006;5.878;2023-04-07T11:31:22;4.32;;;1.90;;
75371;SDS011;63956;52.006;5.878;2023-04-07T11:33:52;4.60;;;1.88;;
75371;SDS011;63956;52.006;5.878;2023-04-07T11:36:27;4.30;;;2.78;;
75371;SDS011;63956;52.006;5.878;2023-04-07T11:38:58;6.53;;;2.42;;
75371;SDS011;63956;52.006;5.878;2023-04-07T11:41:29;4.78;;;2.75;;
75371;SDS011;63956;52.006;5.878;2023-04-07T11:44:03;6.60;;;3.03;;
75371;SDS011;63956;52.006;5.878;2023-04-07T11:46:36;5.38;;;2.65;;
75371;SDS011;63956;52.006;5.878;2023-04-07T11:49:19;5.03;;;2.53;;
75371;SDS011;63956;52.006;5.878;2023-04-07T11:51:56;4.85;;;2.15;;
75371;SDS011;63956;52.006;5.878;2023-04-07T11:54:26;4.97;;;1.92;;
75371;SDS011;63956;52.006;5.878;2023-04-07T11:56:55;7.57;;;2.97;;
75371;SDS011;63956;52.006;5.878;2023-04-07T11:59:25;7.95;;;3.80;;
75371;SDS011;63956;52.006;5.878;2023-04-07T12:04:26;5.47;;;2.03;;
75371;SDS011;63956;52.006;5.878;2023-04-07T12:07:05;6.85;;;3.33;;
75371;SDS011;63956;52.006;5.878;2023-04-07T12:09:35;5.50;;;2.75;;
75371;SDS011;63956;52.006;5.878;2023-04-07T12:12:05;5.60;;;3.75;;
75371;SDS011;63956;52.006;5.878;2023-04-07T12:14:35;5.57;;;2.53;;
75371;SDS011;63956;52.006;5.878;2023-04-07T12:17:13;6.68;;;3.53;;
75371;SDS011;63956;52.006;5.878;2023-04-07T12:19:48;8.27;;;4.05;;
75371;SDS011;63956;52.006;5.878;2023-04-07T12:22:17;7.05;;;3.33;;
75371;SDS011;63956;52.006;5.878;2023-04-07T12:24:47;7.45;;;3.10;;
75371;SDS011;63956;52.006;5.878;2023-04-07T12:27:16;4.93;;;2.17;;
75371;SDS011;63956;52.006;5.878;2023-04-07T12:29:45;4.05;;;2.47;;
75371;SDS011;63956;52.006;5.878;2023-04-07T12:32:17;5.13;;;3.22;;
75371;SDS011;63956;52.006;5.878;2023-04-07T12:34:46;4.18;;;2.05;;
75371;SDS011;63956;52.006;5.878;2023-04-07T12:37:15;5.57;;;2.72;;
75371;SDS011;63956;52.006;5.878;2023-04-07T12:39:44;2.90;;;0.70;;
75371;SDS011;63956;52.006;5.878;2023-04-07T12:42:13;6.53;;;3.13;;
75371;SDS011;63956;52.006;5.878;2023-04-07T12:44:42;3.55;;;1.67;;
75371;SDS011;63956;52.006;5.878;2023-04-07T12:49:43;5.60;;;3.10;;
75371;SDS011;63956;52.006;5.878;2023-04-07T12:52:12;6.38;;;2.70;;
75371;SDS011;63956;52.006;5.878;2023-04-07T12:57:10;7.00;;;2.78;;
75371;SDS011;63956;52.006;5.878;2023-04-07T12:59:39;5.80;;;3.13;;
75371;SDS011;63956;52.006;5.878;2023-04-07T13:02:08;5.07;;;2.72;;
75371;SDS011;63956;52.006;5.878;2023-04-07T13:04:38;5.35;;;2.03;;
75371;SDS011;63956;52.006;5.878;2023-04-07T13:07:13;6.15;;;4.00;;
75371;SDS011;63956;52.006;5.878;2023-04-07T13:09:43;7.35;;;3.72;;
75371;SDS011;63956;52.006;5.878;2023-04-07T13:14:41;4.68;;;2.55;;
75371;SDS011;63956;52.006;5.878;2023-04-07T13:17:11;4.93;;;2.50;;
75371;SDS011;63956;52.006;5.878;2023-04-07T13:19:40;6.95;;;3.63;;
75371;SDS011;63956;52.006;5.878;2023-04-07T13:22:14;6.85;;;3.45;;
75371;SDS011;63956;52.006;5.878;2023-04-07T13:24:43;7.82;;;3.47;;
75371;SDS011;63956;52.006;5.878;2023-04-07T13:29:41;4.90;;;2.75;;
75371;SDS011;63956;52.006;5.878;2023-04-07T13:32:10;6.22;;;2.97;;
75371;SDS011;63956;52.006;5.878;2023-04-07T13:34:40;6.53;;;2.75;;
75371;SDS011;63956;52.006;5.878;2023-04-07T13:37:10;4.78;;;1.20;;
75371;SDS011;63956;52.006;5.878;2023-04-07T13:39:41;6.65;;;3.15;;
75371;SDS011;63956;52.006;5.878;2023-04-07T13:42:12;6.72;;;3.30;;
75371;SDS011;63956;52.006;5.878;2023-04-07T13:44:42;7.55;;;3.28;;
75371;SDS011;63956;52.006;5.878;2023-04-07T13:47:12;6.38;;;3.53;;
75371;SDS011;63956;52.006;5.878;2023-04-07T13:49:44;6.10;;;3.20;;
75371;SDS011;63956;52.006;5.878;2023-04-07T13:52:14;6.47;;;2.83;;
75371;SDS011;63956;52.006;5.878;2023-04-07T13:54:46;7.45;;;4.43;;
75371;SDS011;63956;52.006;5.878;2023-04-07T13:57:15;7.53;;;4.32;;
75371;SDS011;63956;52.006;5.878;2023-04-07T13:59:45;5.85;;;2.53;;
75371;SDS011;63956;52.006;5.878;2023-04-07T14:02:16;4.57;;;2.25;;
75371;SDS011;63956;52.006;5.878;2023-04-07T14:04:46;4.90;;;2.72;;
75371;SDS011;63956;52.006;5.878;2023-04-07T14:07:15;4.30;;;2.42;;
75371;SDS011;63956;52.006;5.878;2023-04-07T14:09:47;5.28;;;2.65;;
75371;SDS011;63956;52.006;5.878;2023-04-07T14:12:16;4.90;;;2.65;;
75371;SDS011;63956;52.006;5.878;2023-04-07T14:14:46;6.72;;;3.47;;
75371;SDS011;63956;52.006;5.878;2023-04-07T14:17:17;5.28;;;2.80;;
75371;SDS011;63956;52.006;5.878;2023-04-07T14:19:46;9.23;;;2.85;;
75371;SDS011;63956;52.006;5.878;2023-04-07T14:22:16;5.88;;;2.80;;
75371;SDS011;63956;52.006;5.878;2023-04-07T14:24:48;7.05;;;3.50;;
75371;SDS011;63956;52.006;5.878;2023-04-07T14:27:17;5.55;;;3.25;;
75371;SDS011;63956;52.006;5.878;2023-04-07T14:29:48;4.93;;;3.28;;
75371;SDS011;63956;52.006;5.878;2023-04-07T14:32:17;7.50;;;2.90;;
75371;SDS011;63956;52.006;5.878;2023-04-07T14:34:46;3.88;;;2.35;;
75371;SDS011;63956;52.006;5.878;2023-04-07T14:37:16;6.10;;;2.78;;
75371;SDS011;63956;52.006;5.878;2023-04-07T14:39:53;6.53;;;3.17;;
75371;SDS011;63956;52.006;5.878;2023-04-07T14:42:22;5.72;;;2.25;;
75371;SDS011;63956;52.006;5.878;2023-04-07T14:44:51;4.07;;;2.28;;
75371;SDS011;63956;52.006;5.878;2023-04-07T14:47:21;4.43;;;2.25;;
75371;SDS011;63956;52.006;5.878;2023-04-07T14:49:50;7.47;;;3.10;;
75371;SDS011;63956;52.006;5.878;2023-04-07T14:52:20;8.65;;;3.72;;
75371;SDS011;63956;52.006;5.878;2023-04-07T14:54:49;5.15;;;3.03;;
75371;SDS011;63956;52.006;5.878;2023-04-07T14:57:21;5.65;;;3.38;;
75371;SDS011;63956;52.006;5.878;2023-04-07T14:59:50;4.53;;;1.00;;
75371;SDS011;63956;52.006;5.878;2023-04-07T15:02:19;7.22;;;2.53;;
75371;SDS011;63956;52.006;5.878;2023-04-07T15:04:48;6.88;;;3.25;;
75371;SDS011;63956;52.006;5.878;2023-04-07T15:07:17;4.97;;;2.42;;
75371;SDS011;63956;52.006;5.878;2023-04-07T15:09:46;4.47;;;2.75;;
75371;SDS011;63956;52.006;5.878;2023-04-07T15:12:16;3.85;;;2.58;;
75371;SDS011;63956;52.006;5.878;2023-04-07T15:14:49;4.18;;;3.13;;
75371;SDS011;63956;52.006;5.878;2023-04-07T15:17:18;4.72;;;2.08;;
75371;SDS011;63956;52.006;5.878;2023-04-07T15:19:48;4.97;;;2.25;;
75371;SDS011;63956;52.006;5.878;2023-04-07T15:24:45;4.45;;;3.03;;
75371;SDS011;63956;52.006;5.878;2023-04-07T15:27:15;3.78;;;2.08;;
75371;SDS011;63956;52.006;5.878;2023-04-07T15:29:44;4.82;;;2.10;;
75371;SDS011;63956;52.006;5.878;2023-04-07T15:32:16;4.28;;;2.30;;
75371;SDS011;63956;52.006;5.878;2023-04-07T15:34:45;4.25;;;2.10;;
75371;SDS011;63956;52.006;5.878;2023-04-07T15:37:14;5.18;;;2.78;;
75371;SDS011;63956;52.006;5.878;2023-04-07T15:39:44;5.78;;;2.65;;
75371;SDS011;63956;52.006;5.878;2023-04-07T15:44:41;4.38;;;2.58;;
75371;SDS011;63956;52.006;5.878;2023-04-07T15:47:10;5.00;;;2.30;;
75371;SDS011;63956;52.006;5.878;2023-04-07T15:49:42;5.82;;;2.80;;
75371;SDS011;63956;52.006;5.878;2023-04-07T15:52:11;5.50;;;2.63;;
75371;SDS011;63956;52.006;5.878;2023-04-07T15:54:41;6.13;;;3.58;;
75371;SDS011;63956;52.006;5.878;2023-04-07T15:57:10;6.90;;;3.45;;
75371;SDS011;63956;52.006;5.878;2023-04-07T15:59:41;4.72;;;2.50;;
75371;SDS011;63956;52.006;5.878;2023-04-07T16:02:11;7.25;;;3.50;;
75371;SDS011;63956;52.006;5.878;2023-04-07T16:04:42;4.05;;;2.35;;
75371;SDS011;63956;52.006;5.878;2023-04-07T16:07:12;7.15;;;3.08;;
75371;SDS011;63956;52.006;5.878;2023-04-07T16:09:41;5.80;;;3.20;;
75371;SDS011;63956;52.006;5.878;2023-04-07T16:12:11;5.53;;;3.17;;
75371;SDS011;63956;52.006;5.878;2023-04-07T16:14:41;6.03;;;3.22;;
75371;SDS011;63956;52.006;5.878;2023-04-07T16:17:10;4.47;;;2.38;;
75371;SDS011;63956;52.006;5.878;2023-04-07T16:19:39;5.45;;;2.25;;
75371;SDS011;63956;52.006;5.878;2023-04-07T16:22:11;6.65;;;3.50;;
75371;SDS011;63956;52.006;5.878;2023-04-07T16:24:40;5.47;;;3.70;;
75371;SDS011;63956;52.006;5.878;2023-04-07T16:27:09;4.85;;;3.28;;
75371;SDS011;63956;52.006;5.878;2023-04-07T16:29:38;7.15;;;4.72;;
75371;SDS011;63956;52.006;5.878;2023-04-07T16:32:07;4.93;;;2.67;;
75371;SDS011;63956;52.006;5.878;2023-04-07T16:34:37;5.95;;;3.25;;
75371;SDS011;63956;52.006;5.878;2023-04-07T16:37:06;7.32;;;3.50;;
75371;SDS011;63956;52.006;5.878;2023-04-07T16:39:37;4.38;;;1.88;;
75371;SDS011;63956;52.006;5.878;2023-04-07T16:42:07;5.20;;;2.72;;
75371;SDS011;63956;52.006;5.878;2023-04-07T16:47:05;5.43;;;2.58;;
75371;SDS011;63956;52.006;5.878;2023-04-07T16:49:34;4.55;;;2.33;;
75371;SDS011;63956;52.006;5.878;2023-04-07T16:52:04;6.22;;;2.80;;
75371;SDS011;63956;52.006;5.878;2023-04-07T16:54:33;3.60;;;2.38;;
75371;SDS011;63956;52.006;5.878;2023-04-07T16:59:34;3.47;;;2.13;;
75371;SDS011;63956;52.006;5.878;2023-04-07T17:02:06;3.75;;;2.10;;
75371;SDS011;63956;52.006;5.878;2023-04-07T17:04:36;4.85;;;2.42;;